sensor_id;sensor_type;location;lat;lon;timestamp;temperature;humidity
38788;DHT22;24536;45.488;12.238;2023-04-25T00:02:18;16.50;86.10
38788;DHT22;24536;45.488;12.238;2023-04-25T00:04:44;16.50;86.10
38788;DHT22;24536;45.488;12.238;2023-04-25T00:07:10;16.50;86.00
38788;DHT22;24536;45.488;12.238;2023-04-25T00:09:36;16.60;85.80
38788;DHT22;24536;45.488;12.238;2023-04-25T00:12:02;16.50;85.70
38788;DHT22;24536;45.488;12.238;2023-04-25T00:14:29;16.60;85.70
38788;DHT22;24536;45.488;12.238;2023-04-25T00:16:55;16.60;85.60
38788;DHT22;24536;45.488;12.238;2023-04-25T00:19:21;16.60;85.80
38788;DHT22;24536;45.488;12.238;2023-04-25T00:21:47;16.60;85.70
38788;DHT22;24536;45.488;12.238;2023-04-25T00:24:13;16.60;85.60
38788;DHT22;24536;45.488;12.238;2023-04-25T00:26:39;16.60;85.60
38788;DHT22;24536;45.488;12.238;2023-04-25T00:29:04;16.60;85.50
38788;DHT22;24536;45.488;12.238;2023-04-25T00:31:30;16.60;85.40
38788;DHT22;24536;45.488;12.238;2023-04-25T00:33:56;16.50;85.30
38788;DHT22;24536;45.488;12.238;2023-04-25T00:36:22;16.50;85.40
38788;DHT22;24536;45.488;12.238;2023-04-25T00:38:47;16.50;85.40
38788;DHT22;24536;45.488;12.238;2023-04-25T00:41:13;16.50;85.40
38788;DHT22;24536;45.488;12.238;2023-04-25T00:43:39;16.50;85.50
38788;DHT22;24536;45.488;12.238;2023-04-25T00:46:05;16.50;85.40
38788;DHT22;24536;45.488;12.238;2023-04-25T00:48:31;16.40;85.50
38788;DHT22;24536;45.488;12.238;2023-04-25T00:50:58;16.40;85.50
38788;DHT22;24536;45.488;12.238;2023-04-25T00:53:25;16.40;85.60
38788;DHT22;24536;45.488;12.238;2023-04-25T00:55:51;16.40;85.80
38788;DHT22;24536;45.488;12.238;2023-04-25T00:58:18;16.30;85.80
38788;DHT22;24536;45.488;12.238;2023-04-25T01:00:45;16.30;86.00
38788;DHT22;24536;45.488;12.238;2023-04-25T01:03:15;16.30;86.10
38788;DHT22;24536;45.488;12.238;2023-04-25T01:05:47;16.30;86.10
38788;DHT22;24536;45.488;12.238;2023-04-25T01:08:14;16.30;86.00
38788;DHT22;24536;45.488;12.238;2023-04-25T01:10:40;16.30;85.90
38788;DHT22;24536;45.488;12.238;2023-04-25T01:13:07;16.40;86.00
38788;DHT22;24536;45.488;12.238;2023-04-25T01:15:33;16.40;86.00
38788;DHT22;24536;45.488;12.238;2023-04-25T01:18:00;16.40;86.00
38788;DHT22;24536;45.488;12.238;2023-04-25T01:20:28;16.40;86.10
38788;DHT22;24536;45.488;12.238;2023-04-25T01:22:55;16.40;86.20
38788;DHT22;24536;45.488;12.238;2023-04-25T01:25:23;16.40;86.20
38788;DHT22;24536;45.488;12.238;2023-04-25T01:27:49;16.40;86.10
38788;DHT22;24536;45.488;12.238;2023-04-25T01:30:15;16.40;86.10
38788;DHT22;24536;45.488;12.238;2023-04-25T01:32:42;16.40;86.10
38788;DHT22;24536;45.488;12.238;2023-04-25T01:35:10;16.40;86.10
38788;DHT22;24536;45.488;12.238;2023-04-25T01:37:38;16.40;86.10
38788;DHT22;24536;45.488;12.238;2023-04-25T01:40:04;16.40;86.00
38788;DHT22;24536;45.488;12.238;2023-04-25T01:42:32;16.40;86.20
38788;DHT22;24536;45.488;12.238;2023-04-25T01:44:57;16.40;86.30
38788;DHT22;24536;45.488;12.238;2023-04-25T01:47:23;16.40;86.50
38788;DHT22;24536;45.488;12.238;2023-04-25T01:49:49;16.30;86.40
38788;DHT22;24536;45.488;12.238;2023-04-25T01:52:15;16.30;86.50
38788;DHT22;24536;45.488;12.238;2023-04-25T01:54:41;16.30;86.40
38788;DHT22;24536;45.488;12.238;2023-04-25T01:57:10;16.30;86.50
38788;DHT22;24536;45.488;12.238;2023-04-25T01:59:36;16.30;86.60
38788;DHT22;24536;45.488;12.238;2023-04-25T02:02:02;16.30;86.60
38788;DHT22;24536;45.488;12.238;2023-04-25T02:04:29;16.30;86.50
38788;DHT22;24536;45.488;12.238;2023-04-25T02:06:55;16.30;86.50
38788;DHT22;24536;45.488;12.238;2023-04-25T02:09:21;16.30;86.40
38788;DHT22;24536;45.488;12.238;2023-04-25T02:11:47;16.30;86.30
38788;DHT22;24536;45.488;12.238;2023-04-25T02:14:13;16.30;86.50
38788;DHT22;24536;45.488;12.238;2023-04-25T02:16:38;16.30;86.40
38788;DHT22;24536;45.488;12.238;2023-04-25T02:19:05;16.30;86.30
38788;DHT22;24536;45.488;12.238;2023-04-25T02:21:31;16.30;86.30
38788;DHT22;24536;45.488;12.238;2023-04-25T02:23:57;16.30;86.10
38788;DHT22;24536;45.488;12.238;2023-04-25T02:26:23;16.30;86.00
38788;DHT22;24536;45.488;12.238;2023-04-25T02:28:50;16.30;85.80
38788;DHT22;24536;45.488;12.238;2023-04-25T02:31:16;16.30;85.70
38788;DHT22;24536;45.488;12.238;2023-04-25T02:33:42;16.20;85.70
38788;DHT22;24536;45.488;12.238;2023-04-25T02:36:08;16.20;85.60
38788;DHT22;24536;45.488;12.238;2023-04-25T02:38:34;16.20;85.60
38788;DHT22;24536;45.488;12.238;2023-04-25T02:41:00;16.20;85.60
38788;DHT22;24536;45.488;12.238;2023-04-25T02:43:26;16.10;85.60
38788;DHT22;24536;45.488;12.238;2023-04-25T02:45:51;16.10;85.70
38788;DHT22;24536;45.488;12.238;2023-04-25T02:48:17;16.10;85.80
38788;DHT22;24536;45.488;12.238;2023-04-25T02:50:43;16.00;86.00
38788;DHT22;24536;45.488;12.238;2023-04-25T02:53:08;16.00;86.00
38788;DHT22;24536;45.488;12.238;2023-04-25T02:55:34;16.00;86.10
38788;DHT22;24536;45.488;12.238;2023-04-25T02:58:00;15.90;86.00
38788;DHT22;24536;45.488;12.238;2023-04-25T03:00:25;15.90;86.10
38788;DHT22;24536;45.488;12.238;2023-04-25T03:02:51;15.90;86.10
38788;DHT22;24536;45.488;12.238;2023-04-25T03:05:17;15.90;85.70
38788;DHT22;24536;45.488;12.238;2023-04-25T03:07:43;15.90;85.70
38788;DHT22;24536;45.488;12.238;2023-04-25T03:10:10;15.90;85.70
38788;DHT22;24536;45.488;12.238;2023-04-25T03:12:36;15.80;85.90
38788;DHT22;24536;45.488;12.238;2023-04-25T03:15:03;15.80;86.00
38788;DHT22;24536;45.488;12.238;2023-04-25T03:17:29;15.80;85.90
38788;DHT22;24536;45.488;12.238;2023-04-25T03:19:55;15.80;85.90
38788;DHT22;24536;45.488;12.238;2023-04-25T03:22:21;15.80;85.80
38788;DHT22;24536;45.488;12.238;2023-04-25T03:24:47;15.80;85.70
38788;DHT22;24536;45.488;12.238;2023-04-25T03:27:13;15.80;85.70
38788;DHT22;24536;45.488;12.238;2023-04-25T03:29:38;15.80;85.70
38788;DHT22;24536;45.488;12.238;2023-04-25T03:32:05;15.80;85.80
38788;DHT22;24536;45.488;12.238;2023-04-25T03:34:31;15.70;85.90
38788;DHT22;24536;45.488;12.238;2023-04-25T03:36:57;15.70;86.00
38788;DHT22;24536;45.488;12.238;2023-04-25T03:39:22;15.70;86.20
38788;DHT22;24536;45.488;12.238;2023-04-25T03:41:48;15.80;86.60
38788;DHT22;24536;45.488;12.238;2023-04-25T03:44:14;15.80;86.90
38788;DHT22;24536;45.488;12.238;2023-04-25T03:46:40;15.80;87.00
38788;DHT22;24536;45.488;12.238;2023-04-25T03:49:06;15.80;87.20
38788;DHT22;24536;45.488;12.238;2023-04-25T03:51:32;15.80;87.40
38788;DHT22;24536;45.488;12.238;2023-04-25T03:53:57;15.80;87.70
38788;DHT22;24536;45.488;12.238;2023-04-25T03:56:23;15.80;88.20
38788;DHT22;24536;45.488;12.238;2023-04-25T03:58:49;15.80;88.70
38788;DHT22;24536;45.488;12.238;2023-04-25T04:01:15;15.80;89.60
38788;DHT22;24536;45.488;12.238;2023-04-25T04:03:40;15.80;90.00
38788;DHT22;24536;45.488;12.238;2023-04-25T04:06:07;15.80;90.20
38788;DHT22;24536;45.488;12.238;2023-04-25T04:08:33;15.80;90.20
38788;DHT22;24536;45.488;12.238;2023-04-25T04:10:59;15.80;90.20
38788;DHT22;24536;45.488;12.238;2023-04-25T04:13:29;15.80;90.20
38788;DHT22;24536;45.488;12.238;2023-04-25T04:15:55;15.80;90.30
38788;DHT22;24536;45.488;12.238;2023-04-25T04:18:21;15.80;90.50
38788;DHT22;24536;45.488;12.238;2023-04-25T04:20:47;15.70;90.60
38788;DHT22;24536;45.488;12.238;2023-04-25T04:23:13;15.70;90.60
38788;DHT22;24536;45.488;12.238;2023-04-25T04:25:48;15.70;90.70
38788;DHT22;24536;45.488;12.238;2023-04-25T04:28:14;15.70;91.00
38788;DHT22;24536;45.488;12.238;2023-04-25T04:30:41;15.70;91.10
38788;DHT22;24536;45.488;12.238;2023-04-25T04:33:08;15.70;91.20
38788;DHT22;24536;45.488;12.238;2023-04-25T04:35:34;15.70;91.40
38788;DHT22;24536;45.488;12.238;2023-04-25T04:38:00;15.70;91.60
38788;DHT22;24536;45.488;12.238;2023-04-25T04:40:26;15.70;91.90
38788;DHT22;24536;45.488;12.238;2023-04-25T04:42:51;15.70;92.10
38788;DHT22;24536;45.488;12.238;2023-04-25T04:45:18;15.70;92.30
38788;DHT22;24536;45.488;12.238;2023-04-25T04:47:44;15.60;92.20
38788;DHT22;24536;45.488;12.238;2023-04-25T04:50:11;15.70;92.40
38788;DHT22;24536;45.488;12.238;2023-04-25T04:52:39;15.70;92.40
38788;DHT22;24536;45.488;12.238;2023-04-25T04:55:06;15.70;92.50
38788;DHT22;24536;45.488;12.238;2023-04-25T04:57:33;15.70;92.50
38788;DHT22;24536;45.488;12.238;2023-04-25T04:59:59;15.70;92.60
38788;DHT22;24536;45.488;12.238;2023-04-25T05:02:25;15.70;92.50
38788;DHT22;24536;45.488;12.238;2023-04-25T05:04:51;15.80;92.70
38788;DHT22;24536;45.488;12.238;2023-04-25T05:07:18;15.70;92.70
38788;DHT22;24536;45.488;12.238;2023-04-25T05:09:44;15.70;92.60
38788;DHT22;24536;45.488;12.238;2023-04-25T05:12:10;15.70;92.70
38788;DHT22;24536;45.488;12.238;2023-04-25T05:14:35;15.70;92.80
38788;DHT22;24536;45.488;12.238;2023-04-25T05:17:01;15.60;92.70
38788;DHT22;24536;45.488;12.238;2023-04-25T05:19:30;15.60;92.80
38788;DHT22;24536;45.488;12.238;2023-04-25T05:21:55;15.60;92.70
38788;DHT22;24536;45.488;12.238;2023-04-25T05:24:21;15.60;92.80
38788;DHT22;24536;45.488;12.238;2023-04-25T05:26:47;15.50;92.80
38788;DHT22;24536;45.488;12.238;2023-04-25T05:29:12;15.50;92.80
38788;DHT22;24536;45.488;12.238;2023-04-25T05:31:38;15.40;92.90
38788;DHT22;24536;45.488;12.238;2023-04-25T05:34:04;15.30;92.90
38788;DHT22;24536;45.488;12.238;2023-04-25T05:36:29;15.30;93.00
38788;DHT22;24536;45.488;12.238;2023-04-25T05:38:58;15.30;92.90
38788;DHT22;24536;45.488;12.238;2023-04-25T05:41:24;15.20;92.80
38788;DHT22;24536;45.488;12.238;2023-04-25T05:43:49;15.20;92.90
38788;DHT22;24536;45.488;12.238;2023-04-25T05:46:15;15.30;93.00
38788;DHT22;24536;45.488;12.238;2023-04-25T05:48:42;15.20;93.00
38788;DHT22;24536;45.488;12.238;2023-04-25T05:51:08;15.20;93.00
38788;DHT22;24536;45.488;12.238;2023-04-25T05:53:35;15.20;93.00
38788;DHT22;24536;45.488;12.238;2023-04-25T05:56:01;15.20;93.00
38788;DHT22;24536;45.488;12.238;2023-04-25T05:58:27;15.20;93.10
38788;DHT22;24536;45.488;12.238;2023-04-25T06:00:52;15.20;93.20
38788;DHT22;24536;45.488;12.238;2023-04-25T06:03:18;15.30;93.10
38788;DHT22;24536;45.488;12.238;2023-04-25T06:05:44;15.30;93.20
38788;DHT22;24536;45.488;12.238;2023-04-25T06:08:10;15.30;93.30
38788;DHT22;24536;45.488;12.238;2023-04-25T06:10:36;15.40;93.30
38788;DHT22;24536;45.488;12.238;2023-04-25T06:13:03;15.40;93.20
38788;DHT22;24536;45.488;12.238;2023-04-25T06:15:29;15.40;93.20
38788;DHT22;24536;45.488;12.238;2023-04-25T06:17:55;15.40;93.20
38788;DHT22;24536;45.488;12.238;2023-04-25T06:20:21;15.40;93.20
38788;DHT22;24536;45.488;12.238;2023-04-25T06:22:50;15.40;93.20
38788;DHT22;24536;45.488;12.238;2023-04-25T06:25:17;15.40;93.30
38788;DHT22;24536;45.488;12.238;2023-04-25T06:27:42;15.30;93.30
38788;DHT22;24536;45.488;12.238;2023-04-25T06:30:09;15.30;93.30
38788;DHT22;24536;45.488;12.238;2023-04-25T06:32:35;15.30;93.40
38788;DHT22;24536;45.488;12.238;2023-04-25T06:35:00;15.30;93.30
38788;DHT22;24536;45.488;12.238;2023-04-25T06:37:26;15.40;93.40
38788;DHT22;24536;45.488;12.238;2023-04-25T06:39:52;15.30;93.50
38788;DHT22;24536;45.488;12.238;2023-04-25T06:42:18;15.40;93.50
38788;DHT22;24536;45.488;12.238;2023-04-25T06:44:43;15.40;93.50
38788;DHT22;24536;45.488;12.238;2023-04-25T06:47:09;15.40;93.40
38788;DHT22;24536;45.488;12.238;2023-04-25T06:49:35;15.40;93.40
38788;DHT22;24536;45.488;12.238;2023-04-25T06:52:00;15.40;93.40
38788;DHT22;24536;45.488;12.238;2023-04-25T06:54:35;15.50;93.20
38788;DHT22;24536;45.488;12.238;2023-04-25T06:57:00;15.50;93.00
38788;DHT22;24536;45.488;12.238;2023-04-25T06:59:26;15.50;92.90
38788;DHT22;24536;45.488;12.238;2023-04-25T07:01:52;15.40;92.80
38788;DHT22;24536;45.488;12.238;2023-04-25T07:04:18;15.40;92.80
38788;DHT22;24536;45.488;12.238;2023-04-25T07:06:44;15.40;92.80
38788;DHT22;24536;45.488;12.238;2023-04-25T07:09:11;15.40;92.90
38788;DHT22;24536;45.488;12.238;2023-04-25T07:11:36;15.40;93.00
38788;DHT22;24536;45.488;12.238;2023-04-25T07:14:03;15.40;93.10
38788;DHT22;24536;45.488;12.238;2023-04-25T07:16:29;15.40;93.20
38788;DHT22;24536;45.488;12.238;2023-04-25T07:18:54;15.40;93.30
38788;DHT22;24536;45.488;12.238;2023-04-25T07:21:20;15.30;93.10
38788;DHT22;24536;45.488;12.238;2023-04-25T07:23:46;15.20;93.20
38788;DHT22;24536;45.488;12.238;2023-04-25T07:26:12;15.20;93.30
38788;DHT22;24536;45.488;12.238;2023-04-25T07:28:38;15.10;93.40
38788;DHT22;24536;45.488;12.238;2023-04-25T07:31:04;15.10;93.40
38788;DHT22;24536;45.488;12.238;2023-04-25T07:33:30;15.00;93.40
38788;DHT22;24536;45.488;12.238;2023-04-25T07:35:56;14.90;93.70
38788;DHT22;24536;45.488;12.238;2023-04-25T07:38:22;14.90;93.60
38788;DHT22;24536;45.488;12.238;2023-04-25T07:40:49;14.90;93.80
38788;DHT22;24536;45.488;12.238;2023-04-25T07:43:15;14.80;93.70
38788;DHT22;24536;45.488;12.238;2023-04-25T07:45:46;14.70;93.80
38788;DHT22;24536;45.488;12.238;2023-04-25T07:48:17;14.70;93.90
38788;DHT22;24536;45.488;12.238;2023-04-25T07:50:43;14.70;93.80
38788;DHT22;24536;45.488;12.238;2023-04-25T07:53:09;14.70;94.00
38788;DHT22;24536;45.488;12.238;2023-04-25T07:55:35;14.70;93.90
38788;DHT22;24536;45.488;12.238;2023-04-25T07:58:02;14.80;93.90
38788;DHT22;24536;45.488;12.238;2023-04-25T08:00:29;14.80;93.90
38788;DHT22;24536;45.488;12.238;2023-04-25T08:02:54;14.90;93.80
38788;DHT22;24536;45.488;12.238;2023-04-25T08:05:20;14.90;93.90
38788;DHT22;24536;45.488;12.238;2023-04-25T08:07:46;14.90;93.80
38788;DHT22;24536;45.488;12.238;2023-04-25T08:10:12;14.90;93.80
38788;DHT22;24536;45.488;12.238;2023-04-25T08:12:37;14.90;93.80
38788;DHT22;24536;45.488;12.238;2023-04-25T08:15:04;14.90;93.70
38788;DHT22;24536;45.488;12.238;2023-04-25T08:17:30;14.90;93.70
38788;DHT22;24536;45.488;12.238;2023-04-25T08:19:56;14.90;93.60
38788;DHT22;24536;45.488;12.238;2023-04-25T08:22:22;14.90;93.50
38788;DHT22;24536;45.488;12.238;2023-04-25T08:24:48;14.80;93.60
38788;DHT22;24536;45.488;12.238;2023-04-25T08:27:13;14.90;93.50
38788;DHT22;24536;45.488;12.238;2023-04-25T08:29:39;14.80;93.40
38788;DHT22;24536;45.488;12.238;2023-04-25T08:32:05;14.80;93.40
38788;DHT22;24536;45.488;12.238;2023-04-25T08:34:31;14.80;93.40
38788;DHT22;24536;45.488;12.238;2023-04-25T08:36:56;14.80;93.40
38788;DHT22;24536;45.488;12.238;2023-04-25T08:39:22;14.80;93.50
38788;DHT22;24536;45.488;12.238;2023-04-25T08:41:48;14.80;93.50
38788;DHT22;24536;45.488;12.238;2023-04-25T08:44:14;14.70;93.60
38788;DHT22;24536;45.488;12.238;2023-04-25T08:46:41;14.70;93.60
38788;DHT22;24536;45.488;12.238;2023-04-25T08:49:08;14.60;93.70
38788;DHT22;24536;45.488;12.238;2023-04-25T08:51:44;14.60;93.80
38788;DHT22;24536;45.488;12.238;2023-04-25T08:54:13;14.60;93.90
38788;DHT22;24536;45.488;12.238;2023-04-25T08:56:41;14.60;93.90
38788;DHT22;24536;45.488;12.238;2023-04-25T08:59:09;14.60;94.00
38788;DHT22;24536;45.488;12.238;2023-04-25T09:01:35;14.60;94.10
38788;DHT22;24536;45.488;12.238;2023-04-25T09:04:01;14.60;94.10
38788;DHT22;24536;45.488;12.238;2023-04-25T09:06:29;14.60;94.00
38788;DHT22;24536;45.488;12.238;2023-04-25T09:08:54;14.60;94.00
38788;DHT22;24536;45.488;12.238;2023-04-25T09:11:20;14.60;94.00
38788;DHT22;24536;45.488;12.238;2023-04-25T09:13:46;14.60;94.00
38788;DHT22;24536;45.488;12.238;2023-04-25T09:16:11;14.60;94.10
38788;DHT22;24536;45.488;12.238;2023-04-25T09:18:37;14.60;94.20
38788;DHT22;24536;45.488;12.238;2023-04-25T09:21:12;14.60;94.20
38788;DHT22;24536;45.488;12.238;2023-04-25T09:23:49;14.50;94.20
38788;DHT22;24536;45.488;12.238;2023-04-25T09:26:19;14.50;94.30
38788;DHT22;24536;45.488;12.238;2023-04-25T09:28:45;14.50;94.30
38788;DHT22;24536;45.488;12.238;2023-04-25T09:31:11;14.50;94.40
38788;DHT22;24536;45.488;12.238;2023-04-25T09:33:37;14.50;94.50
38788;DHT22;24536;45.488;12.238;2023-04-25T09:36:10;14.60;94.60
38788;DHT22;24536;45.488;12.238;2023-04-25T09:38:44;14.60;94.60
38788;DHT22;24536;45.488;12.238;2023-04-25T09:41:11;14.60;94.40
38788;DHT22;24536;45.488;12.238;2023-04-25T09:43:37;14.60;94.30
38788;DHT22;24536;45.488;12.238;2023-04-25T09:46:08;14.60;94.20
38788;DHT22;24536;45.488;12.238;2023-04-25T09:48:35;14.60;94.00
38788;DHT22;24536;45.488;12.238;2023-04-25T09:51:13;14.60;93.90
38788;DHT22;24536;45.488;12.238;2023-04-25T09:53:44;14.60;93.80
38788;DHT22;24536;45.488;12.238;2023-04-25T09:56:12;14.60;93.80
38788;DHT22;24536;45.488;12.238;2023-04-25T09:58:39;14.60;93.60
38788;DHT22;24536;45.488;12.238;2023-04-25T10:01:07;14.60;93.60
38788;DHT22;24536;45.488;12.238;2023-04-25T10:03:36;14.70;93.60
38788;DHT22;24536;45.488;12.238;2023-04-25T10:06:06;14.70;93.30
38788;DHT22;24536;45.488;12.238;2023-04-25T10:08:34;14.70;93.20
38788;DHT22;24536;45.488;12.238;2023-04-25T10:11:02;14.80;93.30
38788;DHT22;24536;45.488;12.238;2023-04-25T10:13:29;14.80;93.10
38788;DHT22;24536;45.488;12.238;2023-04-25T10:16:00;14.80;93.10
38788;DHT22;24536;45.488;12.238;2023-04-25T10:18:28;14.80;92.80
38788;DHT22;24536;45.488;12.238;2023-04-25T10:20:55;15.00;92.70
38788;DHT22;24536;45.488;12.238;2023-04-25T10:23:22;15.10;92.50
38788;DHT22;24536;45.488;12.238;2023-04-25T10:25:52;15.20;92.70
38788;DHT22;24536;45.488;12.238;2023-04-25T10:28:19;15.30;91.60
38788;DHT22;24536;45.488;12.238;2023-04-25T10:31:06;15.50;92.30
38788;DHT22;24536;45.488;12.238;2023-04-25T10:33:37;15.60;91.10
38788;DHT22;24536;45.488;12.238;2023-04-25T10:38:36;15.80;90.80
38788;DHT22;24536;45.488;12.238;2023-04-25T10:41:04;15.80;90.50
38788;DHT22;24536;45.488;12.238;2023-04-25T10:45:56;15.90;90.30
38788;DHT22;24536;45.488;12.238;2023-04-25T10:48:49;16.00;90.20
38788;DHT22;24536;45.488;12.238;2023-04-25T10:53:44;16.20;88.60
38788;DHT22;24536;45.488;12.238;2023-04-25T10:56:19;16.30;88.80
38788;DHT22;24536;45.488;12.238;2023-04-25T10:58:45;16.40;88.40
38788;DHT22;24536;45.488;12.238;2023-04-25T11:01:21;16.50;88.20
38788;DHT22;24536;45.488;12.238;2023-04-25T11:03:57;16.50;87.80
38788;DHT22;24536;45.488;12.238;2023-04-25T11:09:12;16.80;86.50
38788;DHT22;24536;45.488;12.238;2023-04-25T11:11:38;17.10;87.60
38788;DHT22;24536;45.488;12.238;2023-04-25T11:14:04;17.40;86.40
38788;DHT22;24536;45.488;12.238;2023-04-25T11:16:30;17.60;84.00
38788;DHT22;24536;45.488;12.238;2023-04-25T11:18:58;17.90;84.60
38788;DHT22;24536;45.488;12.238;2023-04-25T11:21:25;18.20;84.10
38788;DHT22;24536;45.488;12.238;2023-04-25T11:23:56;18.50;84.00
38788;DHT22;24536;45.488;12.238;2023-04-25T11:26:22;18.80;80.80
38788;DHT22;24536;45.488;12.238;2023-04-25T11:28:49;19.10;80.70
38788;DHT22;24536;45.488;12.238;2023-04-25T11:31:14;19.30;80.60
38788;DHT22;24536;45.488;12.238;2023-04-25T11:33:40;19.60;78.40
38788;DHT22;24536;45.488;12.238;2023-04-25T11:36:07;19.80;76.10
38788;DHT22;24536;45.488;12.238;2023-04-25T11:38:34;20.10;76.80
38788;DHT22;24536;45.488;12.238;2023-04-25T11:41:00;20.30;77.30
38788;DHT22;24536;45.488;12.238;2023-04-25T11:43:26;20.60;74.90
38788;DHT22;24536;45.488;12.238;2023-04-25T11:45:51;20.60;74.20
38788;DHT22;24536;45.488;12.238;2023-04-25T11:48:20;20.70;72.60
38788;DHT22;24536;45.488;12.238;2023-04-25T11:50:46;20.80;73.00
38788;DHT22;24536;45.488;12.238;2023-04-25T11:53:12;20.90;72.60
38788;DHT22;24536;45.488;12.238;2023-04-25T11:55:38;21.10;72.60
38788;DHT22;24536;45.488;12.238;2023-04-25T11:58:05;21.00;72.40
38788;DHT22;24536;45.488;12.238;2023-04-25T12:00:31;20.90;69.50
38788;DHT22;24536;45.488;12.238;2023-04-25T12:02:58;20.50;69.30
38788;DHT22;24536;45.488;12.238;2023-04-25T12:05:26;20.50;70.90
38788;DHT22;24536;45.488;12.238;2023-04-25T12:07:53;20.70;71.70
38788;DHT22;24536;45.488;12.238;2023-04-25T12:10:20;21.10;69.70
38788;DHT22;24536;45.488;12.238;2023-04-25T12:12:46;21.50;70.10
38788;DHT22;24536;45.488;12.238;2023-04-25T12:17:46;22.30;69.10
38788;DHT22;24536;45.488;12.238;2023-04-25T12:20:14;22.70;66.90
38788;DHT22;24536;45.488;12.238;2023-04-25T12:22:42;22.80;65.60
38788;DHT22;24536;45.488;12.238;2023-04-25T12:25:13;22.90;66.00
38788;DHT22;24536;45.488;12.238;2023-04-25T12:27:39;22.90;65.50
38788;DHT22;24536;45.488;12.238;2023-04-25T12:30:09;23.00;64.50
38788;DHT22;24536;45.488;12.238;2023-04-25T12:32:36;23.10;64.40
38788;DHT22;24536;45.488;12.238;2023-04-25T12:35:04;23.20;63.80
38788;DHT22;24536;45.488;12.238;2023-04-25T12:37:30;23.30;62.50
38788;DHT22;24536;45.488;12.238;2023-04-25T12:39:56;23.40;61.70
38788;DHT22;24536;45.488;12.238;2023-04-25T12:42:21;23.40;61.90
38788;DHT22;24536;45.488;12.238;2023-04-25T12:44:47;23.20;61.90
38788;DHT22;24536;45.488;12.238;2023-04-25T12:47:13;23.00;61.90
38788;DHT22;24536;45.488;12.238;2023-04-25T12:49:39;22.60;60.60
38788;DHT22;24536;45.488;12.238;2023-04-25T12:52:05;22.10;61.50
38788;DHT22;24536;45.488;12.238;2023-04-25T12:54:31;21.70;62.70
38788;DHT22;24536;45.488;12.238;2023-04-25T12:56:56;21.50;63.60
38788;DHT22;24536;45.488;12.238;2023-04-25T12:59:22;21.30;64.20
38788;DHT22;24536;45.488;12.238;2023-04-25T13:01:48;21.30;63.90
38788;DHT22;24536;45.488;12.238;2023-04-25T13:04:14;21.20;64.10
38788;DHT22;24536;45.488;12.238;2023-04-25T13:06:41;21.20;64.00
38788;DHT22;24536;45.488;12.238;2023-04-25T13:09:07;21.20;65.10
38788;DHT22;24536;45.488;12.238;2023-04-25T13:11:32;21.00;64.00
38788;DHT22;24536;45.488;12.238;2023-04-25T13:13:58;20.90;65.10
38788;DHT22;24536;45.488;12.238;2023-04-25T13:16:24;21.00;65.60
38788;DHT22;24536;45.488;12.238;2023-04-25T13:18:49;21.00;65.80
38788;DHT22;24536;45.488;12.238;2023-04-25T13:21:15;21.10;65.50
38788;DHT22;24536;45.488;12.238;2023-04-25T13:23:41;21.00;65.40
38788;DHT22;24536;45.488;12.238;2023-04-25T13:26:08;20.80;64.80
38788;DHT22;24536;45.488;12.238;2023-04-25T13:28:33;20.70;65.00
38788;DHT22;24536;45.488;12.238;2023-04-25T13:30:59;20.60;64.80
38788;DHT22;24536;45.488;12.238;2023-04-25T13:33:25;20.40;64.00
38788;DHT22;24536;45.488;12.238;2023-04-25T13:35:51;20.20;63.90
38788;DHT22;24536;45.488;12.238;2023-04-25T13:38:22;20.10;64.70
38788;DHT22;24536;45.488;12.238;2023-04-25T13:40:49;20.00;65.10
38788;DHT22;24536;45.488;12.238;2023-04-25T13:43:15;19.90;66.60
38788;DHT22;24536;45.488;12.238;2023-04-25T13:45:42;20.00;67.20
38788;DHT22;24536;45.488;12.238;2023-04-25T13:48:07;20.00;66.60
38788;DHT22;24536;45.488;12.238;2023-04-25T13:50:33;20.00;65.60
38788;DHT22;24536;45.488;12.238;2023-04-25T13:52:58;19.80;65.90
38788;DHT22;24536;45.488;12.238;2023-04-25T13:55:24;19.70;66.20
38788;DHT22;24536;45.488;12.238;2023-04-25T13:57:50;19.60;66.10
38788;DHT22;24536;45.488;12.238;2023-04-25T14:00:16;19.50;67.40
38788;DHT22;24536;45.488;12.238;2023-04-25T14:02:42;19.50;67.90
38788;DHT22;24536;45.488;12.238;2023-04-25T14:05:08;19.50;68.50
38788;DHT22;24536;45.488;12.238;2023-04-25T14:07:35;19.40;68.70
38788;DHT22;24536;45.488;12.238;2023-04-25T14:10:01;19.40;68.90
38788;DHT22;24536;45.488;12.238;2023-04-25T14:12:27;19.40;69.40
38788;DHT22;24536;45.488;12.238;2023-04-25T14:14:53;19.40;69.90
38788;DHT22;24536;45.488;12.238;2023-04-25T14:17:19;19.30;70.70
38788;DHT22;24536;45.488;12.238;2023-04-25T14:19:45;19.20;71.30
38788;DHT22;24536;45.488;12.238;2023-04-25T14:22:13;19.10;71.90
38788;DHT22;24536;45.488;12.238;2023-04-25T14:24:39;19.00;72.40
38788;DHT22;24536;45.488;12.238;2023-04-25T14:27:04;19.00;72.90
38788;DHT22;24536;45.488;12.238;2023-04-25T14:29:30;19.00;73.10
38788;DHT22;24536;45.488;12.238;2023-04-25T14:31:56;18.90;72.90
38788;DHT22;24536;45.488;12.238;2023-04-25T14:34:23;18.90;73.30
38788;DHT22;24536;45.488;12.238;2023-04-25T14:36:49;18.90;73.10
38788;DHT22;24536;45.488;12.238;2023-04-25T14:39:15;18.90;72.70
38788;DHT22;24536;45.488;12.238;2023-04-25T14:41:41;18.90;72.90
38788;DHT22;24536;45.488;12.238;2023-04-25T14:44:07;18.90;72.60
38788;DHT22;24536;45.488;12.238;2023-04-25T14:46:33;18.90;73.00
38788;DHT22;24536;45.488;12.238;2023-04-25T14:48:59;18.90;73.20
38788;DHT22;24536;45.488;12.238;2023-04-25T14:51:25;18.90;73.70
38788;DHT22;24536;45.488;12.238;2023-04-25T14:53:52;18.80;74.00
38788;DHT22;24536;45.488;12.238;2023-04-25T14:56:18;18.80;74.10
38788;DHT22;24536;45.488;12.238;2023-04-25T14:58:44;18.80;73.90
38788;DHT22;24536;45.488;12.238;2023-04-25T15:01:11;18.70;73.10
38788;DHT22;24536;45.488;12.238;2023-04-25T15:03:39;18.70;73.20
38788;DHT22;24536;45.488;12.238;2023-04-25T15:06:05;18.60;73.30
38788;DHT22;24536;45.488;12.238;2023-04-25T15:08:32;18.50;73.20
38788;DHT22;24536;45.488;12.238;2023-04-25T15:10:58;18.40;73.30
38788;DHT22;24536;45.488;12.238;2023-04-25T15:13:24;18.40;73.50
38788;DHT22;24536;45.488;12.238;2023-04-25T15:15:50;18.30;73.40
38788;DHT22;24536;45.488;12.238;2023-04-25T15:18:20;18.20;73.30
38788;DHT22;24536;45.488;12.238;2023-04-25T15:20:52;18.20;73.10
38788;DHT22;24536;45.488;12.238;2023-04-25T15:23:19;18.10;72.70
38788;DHT22;24536;45.488;12.238;2023-04-25T15:25:45;18.00;73.10